Time;durP1;ratioP1;P1;durP2;ratioP2;P2;SDS_P1;SDS_P2;PMS_P1;PMS_P2;Temp;Humidity;BMP_temperature;BMP_pressure;BME280_temperature;BME280_humidity;BME280_pressure;Samples;Min_cycle;Max_cycle;Signal;HPM_P1;HPM_P2
2022/05/25 00:00:06;;;;;;;1.33;0.50;;;;;;;;;;4954661;28;20137;-77
2022/05/25 00:02:31;;;;;;;1.27;0.50;;;;;;;;;;4939899;28;20032;-79
2022/05/25 00:04:57;;;;;;;1.58;0.30;;;;;;;;;;4982585;28;20174;-79
2022/05/25 00:07:23;;;;;;;1.48;0.57;;;;;;;;;;4998933;28;20114;-79
2022/05/25 00:09:49;;;;;;;1.70;0.40;;;;;;;;;;4998816;28;20039;-79
2022/05/25 00:12:15;;;;;;;0.90;0.30;;;;;;;;;;4998415;28;20078;-79
2022/05/25 00:14:40;;;;;;;1.77;0.47;;;;;;;;;;4982647;28;20067;-79
2022/05/25 00:17:06;;;;;;;1.80;0.50;;;;;;;;;;4998293;28;20044;-79
2022/05/25 00:22:15;;;;;;;1.67;0.32;;;;;;;;;;4988737;28;20032;-79
2022/05/25 00:24:41;;;;;;;0.93;0.40;;;;;;;;;;4998867;28;20520;-79
2022/05/25 00:27:06;;;;;;;1.40;0.93;;;;;;;;;;5023466;28;20559;-80
2022/05/25 00:29:32;;;;;;;1.38;0.28;;;;;;;;;;4934871;29;20130;-79
2022/05/25 00:31:57;;;;;;;1.00;0.50;;;;;;;;;;4934554;28;20501;-79
2022/05/25 00:34:23;;;;;;;1.17;0.43;;;;;;;;;;4935119;29;20130;-79
2022/05/25 00:36:48;;;;;;;2.15;0.55;;;;;;;;;;4919244;28;20072;-77
2022/05/25 00:39:13;;;;;;;1.65;0.50;;;;;;;;;;4934706;28;20420;-77
2022/05/25 00:41:39;;;;;;;3.10;0.60;;;;;;;;;;4934726;29;20043;-78
2022/05/25 00:44:05;;;;;;;2.83;0.50;;;;;;;;;;4951024;28;20417;-77
2022/05/25 00:46:32;;;;;;;0.82;0.35;;;;;;;;;;4918755;28;20035;-77
2022/05/25 00:49:04;;;;;;;1.73;0.30;;;;;;;;;;4951053;28;20114;-77
2022/05/25 00:51:41;;;;;;;0.60;0.30;;;;;;;;;;4953782;28;20038;-79
2022/05/25 00:54:14;;;;;;;1.48;0.50;;;;;;;;;;4938939;28;20035;-78
2022/05/25 00:56:41;;;;;;;2.20;0.38;;;;;;;;;;4953689;28;20042;-77
2022/05/25 00:59:14;;;;;;;1.77;0.40;;;;;;;;;;5021187;28;20053;-77
2022/05/25 01:01:41;;;;;;;1.67;0.63;;;;;;;;;;4930973;28;20122;-77
2022/05/25 01:04:07;;;;;;;1.90;0.30;;;;;;;;;;4997295;28;20039;-77
2022/05/25 01:07:00;;;;;;;2.05;0.90;;;;;;;;;;4998084;28;20411;-77
2022/05/25 01:09:31;;;;;;;0.80;0.30;;;;;;;;;;4931249;28;20384;-77
2022/05/25 01:12:24;;;;;;;2.42;0.40;;;;;;;;;;4997729;28;20081;-77
2022/05/25 01:15:11;;;;;;;1.77;0.30;;;;;;;;;;4931167;28;20039;-76
2022/05/25 01:17:36;;;;;;;2.28;0.35;;;;;;;;;;4997817;28;20058;-76
2022/05/25 01:20:33;;;;;;;2.58;0.75;;;;;;;;;;4931280;29;20036;-77
2022/05/25 01:23:02;;;;;;;1.80;0.60;;;;;;;;;;4987810;28;20402;-77
2022/05/25 01:25:46;;;;;;;0.93;0.30;;;;;;;;;;4998020;28;20093;-77
2022/05/25 01:28:52;;;;;;;1.55;0.40;;;;;;;;;;4950837;28;20059;-77
2022/05/25 01:31:28;;;;;;;1.83;0.40;;;;;;;;;;4930453;28;20047;-77
2022/05/25 01:34:01;;;;;;;1.85;0.40;;;;;;;;;;4996050;28;20071;-77
2022/05/25 01:36:53;;;;;;;1.00;0.32;;;;;;;;;;4996484;28;20387;-77
2022/05/25 01:39:23;;;;;;;1.75;0.65;;;;;;;;;;4994531;28;20050;-77
2022/05/25 01:42:09;;;;;;;1.13;0.28;;;;;;;;;;4980713;28;20027;-77
2022/05/25 01:44:59;;;;;;;1.58;0.60;;;;;;;;;;4997406;28;20036;-77
2022/05/25 01:47:26;;;;;;;1.20;0.30;;;;;;;;;;4938060;28;20038;-77
2022/05/25 01:49:55;;;;;;;2.63;0.40;;;;;;;;;;4937586;28;20404;-77
2022/05/25 01:52:26;;;;;;;2.10;0.60;;;;;;;;;;4953039;28;20038;-77
2022/05/25 01:54:54;;;;;;;1.80;0.50;;;;;;;;;;4952958;28;20066;-77
2022/05/25 01:57:22;;;;;;;1.05;0.35;;;;;;;;;;5019949;28;20054;-77
2022/05/25 01:59:47;;;;;;;1.00;0.40;;;;;;;;;;5020046;28;20477;-77
2022/05/25 02:04:57;;;;;;;1.50;0.50;;;;;;;;;;4955321;28;20035;-77
2022/05/25 02:07:25;;;;;;;1.20;0.30;;;;;;;;;;4952563;28;20504;-76
2022/05/25 02:10:01;;;;;;;1.65;0.40;;;;;;;;;;4970018;28;20039;-77
2022/05/25 02:12:57;;;;;;;1.27;0.75;;;;;;;;;;4956096;28;20034;-77
2022/05/25 02:15:32;;;;;;;2.88;0.50;;;;;;;;;;4973067;28;20370;-77
2022/05/25 02:18:11;;;;;;;2.47;0.63;;;;;;;;;;5023632;28;20035;-79
2022/05/25 02:20:59;;;;;;;2.08;0.40;;;;;;;;;;5024091;28;20035;-79
2022/05/25 02:23:29;;;;;;;2.38;0.50;;;;;;;;;;4946073;28;20045;-77
2022/05/25 02:26:29;;;;;;;1.98;0.40;;;;;;;;;;5021653;28;20039;-77
2022/05/25 02:29:06;;;;;;;4.10;0.70;;;;;;;;;;4937017;28;20055;-77
2022/05/25 02:31:36;;;;;;;1.60;0.40;;;;;;;;;;4952370;28;20126;-77
2022/05/25 02:34:03;;;;;;;1.48;0.30;;;;;;;;;;4936916;29;20042;-77
2022/05/25 02:36:29;;;;;;;5.05;0.50;;;;;;;;;;4952585;29;20035;-76
2022/05/25 02:38:55;;;;;;;1.77;0.57;;;;;;;;;;4952525;28;20105;-77
2022/05/25 02:41:31;;;;;;;1.80;0.65;;;;;;;;;;4936840;29;20035;-76
2022/05/25 02:43:58;;;;;;;0.88;0.40;;;;;;;;;;4920821;28;20093;-77
2022/05/25 02:46:23;;;;;;;2.13;0.57;;;;;;;;;;4936786;28;20051;-76
2022/05/25 02:48:49;;;;;;;1.20;0.40;;;;;;;;;;4952171;28;20085;-77
2022/05/25 02:51:14;;;;;;;1.65;0.75;;;;;;;;;;4936542;28;20039;-77
2022/05/25 02:53:40;;;;;;;1.13;0.40;;;;;;;;;;4920509;28;20120;-77
2022/05/25 02:56:06;;;;;;;1.42;0.40;;;;;;;;;;4936692;29;20051;-77
2022/05/25 02:58:32;;;;;;;2.55;0.85;;;;;;;;;;4935675;28;20058;-77
2022/05/25 03:00:57;;;;;;;2.03;0.60;;;;;;;;;;4919416;29;20043;-77
2022/05/25 03:03:22;;;;;;;1.67;0.73;;;;;;;;;;5002420;28;20451;-77
2022/05/25 03:05:48;;;;;;;1.15;0.50;;;;;;;;;;4936285;29;20043;-77
2022/05/25 03:08:13;;;;;;;1.08;0.40;;;;;;;;;;4951909;29;20051;-77
2022/05/25 03:10:39;;;;;;;1.92;0.52;;;;;;;;;;4936141;29;20517;-77
2022/05/25 03:13:06;;;;;;;2.42;0.90;;;;;;;;;;4935753;29;20042;-76
2022/05/25 03:15:31;;;;;;;1.70;0.63;;;;;;;;;;5003240;28;20042;-76
2022/05/25 03:17:57;;;;;;;1.40;0.40;;;;;;;;;;4951186;28;20043;-77
2022/05/25 03:20:23;;;;;;;2.65;0.63;;;;;;;;;;4936338;29;20035;-77
2022/05/25 03:22:48;;;;;;;2.05;0.50;;;;;;;;;;4936096;28;20134;-76
2022/05/25 03:25:14;;;;;;;1.92;0.68;;;;;;;;;;4936419;29;20047;-77
2022/05/25 03:27:40;;;;;;;1.85;0.77;;;;;;;;;;5002431;28;20046;-76
2022/05/25 03:30:06;;;;;;;1.38;0.68;;;;;;;;;;4904349;28;20498;-77
2022/05/25 03:32:32;;;;;;;1.45;0.55;;;;;;;;;;4904185;28;20040;-77
2022/05/25 03:34:57;;;;;;;1.63;0.60;;;;;;;;;;4920372;29;20047;-76
2022/05/25 03:37:23;;;;;;;2.33;0.73;;;;;;;;;;4935575;29;20394;-77
2022/05/25 03:39:48;;;;;;;1.48;0.50;;;;;;;;;;4919918;29;20552;-76
2022/05/25 03:42:14;;;;;;;1.98;0.40;;;;;;;;;;4935414;29;20061;-77
2022/05/25 03:44:39;;;;;;;2.17;0.63;;;;;;;;;;4935651;29;20031;-77
2022/05/25 03:47:05;;;;;;;1.83;0.40;;;;;;;;;;4935143;29;20046;-77
2022/05/25 03:49:30;;;;;;;2.60;0.55;;;;;;;;;;4935644;29;20456;-77
2022/05/25 03:51:57;;;;;;;1.30;0.40;;;;;;;;;;4919798;29;20067;-76
2022/05/25 03:54:22;;;;;;;2.85;0.60;;;;;;;;;;4935443;29;20043;-77
2022/05/25 03:56:48;;;;;;;1.30;0.32;;;;;;;;;;4919292;28;20421;-77
2022/05/25 03:59:13;;;;;;;2.45;0.43;;;;;;;;;;4935413;28;20402;-77
2022/05/25 04:01:38;;;;;;;1.20;0.30;;;;;;;;;;4935223;29;20079;-77
2022/05/25 04:04:04;;;;;;;1.65;0.40;;;;;;;;;;4935101;29;20039;-77
2022/05/25 04:06:30;;;;;;;2.83;0.43;;;;;;;;;;4919430;29;20418;-77
2022/05/25 04:08:55;;;;;;;1.27;0.40;;;;;;;;;;4919762;28;20126;-77
2022/05/25 04:11:20;;;;;;;1.23;0.70;;;;;;;;;;4934229;29;20513;-77
2022/05/25 04:13:46;;;;;;;2.03;0.32;;;;;;;;;;4919443;28;20391;-77
2022/05/25 04:16:12;;;;;;;2.60;0.30;;;;;;;;;;4935103;29;20405;-77
2022/05/25 04:18:37;;;;;;;1.98;0.52;;;;;;;;;;4950895;28;20035;-77
2022/05/25 04:21:03;;;;;;;1.50;0.40;;;;;;;;;;4935060;28;20051;-77
2022/05/25 04:23:28;;;;;;;1.05;0.28;;;;;;;;;;4950797;29;20035;-77
2022/05/25 04:25:54;;;;;;;1.27;0.75;;;;;;;;;;4919050;28;20051;-77
2022/05/25 04:28:20;;;;;;;1.52;0.60;;;;;;;;;;4934608;28;20053;-77
2022/05/25 04:30:45;;;;;;;2.42;0.60;;;;;;;;;;4934068;29;20406;-77
2022/05/25 04:33:11;;;;;;;0.90;0.30;;;;;;;;;;4933242;29;20489;-77
2022/05/25 04:35:36;;;;;;;0.77;0.20;;;;;;;;;;4934932;29;20128;-77
2022/05/25 04:38:02;;;;;;;1.73;0.50;;;;;;;;;;4935053;29;20405;-77
2022/05/25 04:40:32;;;;;;;2.50;0.80;;;;;;;;;;4934847;28;20035;-77
2022/05/25 04:42:59;;;;;;;2.22;0.80;;;;;;;;;;5018672;28;20110;-77
2022/05/25 04:45:28;;;;;;;2.63;0.68;;;;;;;;;;5017867;28;20043;-77
2022/05/25 04:47:54;;;;;;;2.25;0.60;;;;;;;;;;5019865;28;20035;-78
2022/05/25 04:50:21;;;;;;;1.52;0.30;;;;;;;;;;4953841;28;20034;-77
2022/05/25 04:52:47;;;;;;;1.10;0.30;;;;;;;;;;4947099;28;20074;-80
2022/05/25 04:57:19;;;;;;;1.80;0.40;;;;;;;;;;4905175;29;20054;-80
2022/05/25 04:57:58;;;;;;;1.52;0.40;;;;;;;;;;4934098;28;20043;-80
2022/05/25 05:00:24;;;;;;;2.90;0.60;;;;;;;;;;4917326;28;20053;-77
2022/05/25 05:02:49;;;;;;;1.67;0.80;;;;;;;;;;4915448;28;20043;-80
2022/05/25 05:05:17;;;;;;;2.72;0.80;;;;;;;;;;4981801;28;20131;-81
2022/05/25 05:07:43;;;;;;;3.90;0.45;;;;;;;;;;4946337;28;20521;-79
2022/05/25 05:10:09;;;;;;;2.10;0.50;;;;;;;;;;4989900;28;20043;-78
2022/05/25 05:12:34;;;;;;;1.40;0.20;;;;;;;;;;4928635;28;20069;-78
2022/05/25 05:15:00;;;;;;;1.00;0.30;;;;;;;;;;4899867;28;20058;-78
2022/05/25 05:17:25;;;;;;;5.50;0.75;;;;;;;;;;4905645;29;20410;-78
2022/05/25 05:19:51;;;;;;;6.75;0.50;;;;;;;;;;4997942;28;20032;-77
2022/05/25 05:22:17;;;;;;;3.75;0.40;;;;;;;;;;4997483;28;20028;-78
2022/05/25 05:24:42;;;;;;;10.73;1.17;;;;;;;;;;4997598;28;20047;-78
2022/05/25 05:27:08;;;;;;;5.00;0.57;;;;;;;;;;5022283;28;20039;-78
2022/05/25 05:29:34;;;;;;;4.07;0.80;;;;;;;;;;4933776;28;20130;-80
2022/05/25 05:31:59;;;;;;;2.83;0.55;;;;;;;;;;4950168;29;20509;-79
2022/05/25 05:34:28;;;;;;;3.17;0.40;;;;;;;;;;4934287;29;20050;-78
2022/05/25 05:37:06;;;;;;;3.60;0.70;;;;;;;;;;4933694;29;20042;-78
2022/05/25 05:39:34;;;;;;;2.42;0.60;;;;;;;;;;4934130;28;20039;-79
2022/05/25 05:42:03;;;;;;;3.17;0.60;;;;;;;;;;4949879;28;20046;-78
2022/05/25 05:44:31;;;;;;;4.85;0.50;;;;;;;;;;4934077;29;20102;-79
2022/05/25 05:46:57;;;;;;;5.15;0.70;;;;;;;;;;4901316;29;20528;-79
2022/05/25 05:49:23;;;;;;;11.50;1.13;;;;;;;;;;4926741;29;20397;-77
2022/05/25 05:51:48;;;;;;;21.20;2.30;;;;;;;;;;4933459;28;20031;-78
2022/05/25 05:54:13;;;;;;;86.15;11.20;;;;;;;;;;4933609;29;20047;-77
2022/05/25 05:56:39;;;;;;;11.30;1.42;;;;;;;;;;4933521;29;20069;-77
2022/05/25 05:59:04;;;;;;;9.73;0.98;;;;;;;;;;4917716;29;20398;-76
2022/05/25 06:01:30;;;;;;;2.55;0.25;;;;;;;;;;4930619;28;20085;-77
2022/05/25 06:03:55;;;;;;;2.30;0.60;;;;;;;;;;4930498;28;20054;-76
2022/05/25 06:06:23;;;;;;;17.20;1.73;;;;;;;;;;4930415;28;20402;-76
2022/05/25 06:08:49;;;;;;;4.57;0.50;;;;;;;;;;4929857;29;20036;-77
2022/05/25 06:11:14;;;;;;;2.75;0.95;;;;;;;;;;4946245;28;20036;-77
2022/05/25 06:13:40;;;;;;;10.27;1.40;;;;;;;;;;4914435;29;20051;-77
2022/05/25 06:21:33;;;;;;;2.58;0.40;;;;;;;;;;4933061;28;20125;-77
2022/05/25 06:23:59;;;;;;;1.45;0.35;;;;;;;;;;4933507;28;20066;-77
2022/05/25 06:26:27;;;;;;;4.05;0.45;;;;;;;;;;4949349;29;20128;-77
2022/05/25 06:28:53;;;;;;;3.72;0.57;;;;;;;;;;4933373;28;20421;-77
2022/05/25 06:31:19;;;;;;;1.13;0.20;;;;;;;;;;5000030;28;20047;-77
2022/05/25 06:33:45;;;;;;;3.10;0.30;;;;;;;;;;5016320;28;20161;-77
2022/05/25 06:36:29;;;;;;;1.08;0.20;;;;;;;;;;5016559;28;20440;-77
2022/05/25 06:38:54;;;;;;;0.95;0.20;;;;;;;;;;5016127;28;20050;-77
2022/05/25 06:41:20;;;;;;;1.75;0.22;;;;;;;;;;5016364;28;20122;-77
2022/05/25 06:43:46;;;;;;;1.05;0.30;;;;;;;;;;4996085;28;20082;-77
2022/05/25 06:46:12;;;;;;;3.35;0.30;;;;;;;;;;4929861;29;20095;-77
2022/05/25 06:48:38;;;;;;;1.05;0.20;;;;;;;;;;4940448;28;20048;-77
2022/05/25 06:51:11;;;;;;;1.15;0.30;;;;;;;;;;4952332;28;20093;-77
2022/05/25 06:53:37;;;;;;;2.13;0.30;;;;;;;;;;4952249;28;20066;-77
2022/05/25 06:56:02;;;;;;;1.25;0.10;;;;;;;;;;4952213;28;20409;-77
2022/05/25 06:58:28;;;;;;;2.05;0.30;;;;;;;;;;4954948;28;20046;-77
2022/05/25 07:00:53;;;;;;;0.98;0.28;;;;;;;;;;4940099;28;20050;-77
2022/05/25 07:03:18;;;;;;;3.20;0.80;;;;;;;;;;4934212;29;20422;-77
2022/05/25 07:05:44;;;;;;;7.90;3.60;;;;;;;;;;4983819;28;20453;-77
2022/05/25 07:08:09;;;;;;;16.23;11.68;;;;;;;;;;4983748;28;20473;-77
2022/05/25 07:10:35;;;;;;;29.25;20.63;;;;;;;;;;5000043;28;20044;-77
2022/05/25 07:13:00;;;;;;;31.52;21.42;;;;;;;;;;4999091;28;20469;-77
2022/05/25 07:15:26;;;;;;;16.30;9.80;;;;;;;;;;4997724;28;20044;-77
2022/05/25 07:17:51;;;;;;;7.15;4.22;;;;;;;;;;4979632;28;20129;-78
2022/05/25 07:20:16;;;;;;;7.57;3.53;;;;;;;;;;4934912;28;20069;-78
2022/05/25 07:22:42;;;;;;;5.95;2.38;;;;;;;;;;4951400;28;20039;-78
2022/05/25 07:25:07;;;;;;;4.65;1.60;;;;;;;;;;4951574;29;20093;-77
2022/05/25 07:27:33;;;;;;;2.95;1.00;;;;;;;;;;5010747;28;20047;-77
2022/05/25 07:29:58;;;;;;;3.30;0.95;;;;;;;;;;4932519;29;20047;-77
2022/05/25 07:32:24;;;;;;;12.15;1.60;;;;;;;;;;4999515;28;20624;-77
2022/05/25 07:34:57;;;;;;;3.03;0.60;;;;;;;;;;4983460;28;20071;-77
2022/05/25 07:37:22;;;;;;;2.70;0.40;;;;;;;;;;4978529;28;20386;-77
2022/05/25 07:39:57;;;;;;;3.25;0.47;;;;;;;;;;4916742;29;20063;-77
2022/05/25 07:42:23;;;;;;;2.42;0.52;;;;;;;;;;4932350;28;20493;-77
2022/05/25 07:44:52;;;;;;;1.83;0.40;;;;;;;;;;4999773;28;20036;-77
2022/05/25 07:47:18;;;;;;;2.30;0.40;;;;;;;;;;4988021;28;20031;-77
2022/05/25 07:49:43;;;;;;;1.30;0.30;;;;;;;;;;4939175;28;20088;-78
2022/05/25 07:52:08;;;;;;;1.27;0.35;;;;;;;;;;4954495;28;20043;-77
2022/05/25 07:54:34;;;;;;;2.65;0.22;;;;;;;;;;4938919;28;20034;-76
2022/05/25 07:56:59;;;;;;;2.38;0.40;;;;;;;;;;5022207;28;20054;-78
2022/05/25 07:59:25;;;;;;;0.77;0.35;;;;;;;;;;4938278;28;20147;-77
2022/05/25 08:07:30;;;;;;;1.00;0.20;;;;;;;;;;4994263;28;20039;-77
2022/05/25 08:10:00;;;;;;;1.35;0.30;;;;;;;;;;4984991;28;20046;-77
2022/05/25 08:12:25;;;;;;;1.30;0.32;;;;;;;;;;5000555;28;20498;-77
2022/05/25 08:14:51;;;;;;;3.50;0.40;;;;;;;;;;4986195;28;20047;-77
2022/05/25 08:17:16;;;;;;;1.13;0.15;;;;;;;;;;4934644;29;20114;-77
2022/05/25 08:19:41;;;;;;;0.88;0.38;;;;;;;;;;4919437;29;20078;-77
2022/05/25 08:22:07;;;;;;;0.93;0.20;;;;;;;;;;4918928;29;20411;-77
2022/05/25 08:24:33;;;;;;;3.85;0.22;;;;;;;;;;4935459;29;20398;-77
2022/05/25 08:26:59;;;;;;;1.85;0.20;;;;;;;;;;4919443;28;20043;-77
2022/05/25 08:29:25;;;;;;;1.40;0.20;;;;;;;;;;4934882;28;20501;-77
2022/05/25 08:31:55;;;;;;;1.77;0.20;;;;;;;;;;4938954;28;20104;-77
2022/05/25 08:34:21;;;;;;;0.82;0.20;;;;;;;;;;4935402;29;20035;-77
2022/05/25 08:36:47;;;;;;;0.52;0.20;;;;;;;;;;4934512;28;20074;-77
2022/05/25 08:39:13;;;;;;;3.63;0.85;;;;;;;;;;4951028;29;20118;-77
2022/05/25 08:41:39;;;;;;;3.20;0.68;;;;;;;;;;4935094;28;20248;-77
2022/05/25 08:44:04;;;;;;;1.77;0.15;;;;;;;;;;4934851;28;20050;-77
2022/05/25 08:46:30;;;;;;;1.17;0.25;;;;;;;;;;4934833;29;20118;-77
2022/05/25 08:48:56;;;;;;;6.63;4.47;;;;;;;;;;4950290;28;20031;-78
2022/05/25 08:51:25;;;;;;;18.70;12.25;;;;;;;;;;4953857;28;20053;-78
2022/05/25 08:53:50;;;;;;;15.52;9.80;;;;;;;;;;4954395;28;20523;-78
2022/05/25 08:56:26;;;;;;;12.30;6.28;;;;;;;;;;4953797;28;20035;-78
2022/05/25 08:59:05;;;;;;;5.10;2.08;;;;;;;;;;4953277;28;20078;-78
2022/05/25 09:02:05;;;;;;;2.47;0.75;;;;;;;;;;4949132;28;20099;-78
2022/05/25 09:04:48;;;;;;;2.50;0.55;;;;;;;;;;5014746;28;20060;-78
2022/05/25 09:07:35;;;;;;;3.05;0.40;;;;;;;;;;5014340;28;20124;-78
2022/05/25 09:10:01;;;;;;;3.35;0.40;;;;;;;;;;4997881;28;20044;-79
2022/05/25 09:12:34;;;;;;;1.88;0.30;;;;;;;;;;5015054;28;20037;-78
2022/05/25 09:15:20;;;;;;;2.42;0.30;;;;;;;;;;5014517;28;20037;-78
2022/05/25 09:18:13;;;;;;;1.77;0.60;;;;;;;;;;5001038;28;20070;-77
2022/05/25 09:20:44;;;;;;;1.17;0.38;;;;;;;;;;5015573;28;20035;-78
2022/05/25 09:23:10;;;;;;;1.63;0.20;;;;;;;;;;4934325;29;20128;-78
2022/05/25 09:25:35;;;;;;;2.03;0.30;;;;;;;;;;4934195;29;20070;-78
2022/05/25 09:28:12;;;;;;;2.72;0.40;;;;;;;;;;5000757;28;20043;-78
2022/05/25 09:30:39;;;;;;;1.58;0.50;;;;;;;;;;4915773;29;20577;-78
2022/05/25 09:33:22;;;;;;;2.42;0.45;;;;;;;;;;5013522;28;20122;-78
2022/05/25 09:35:52;;;;;;;2.80;0.20;;;;;;;;;;4973320;28;20035;-78
2022/05/25 09:38:32;;;;;;;1.23;0.20;;;;;;;;;;5013458;28;20035;-78
2022/05/25 09:41:03;;;;;;;1.98;0.30;;;;;;;;;;4930935;29;20494;-78
2022/05/25 09:43:29;;;;;;;2.13;0.30;;;;;;;;;;4979975;28;20462;-78
2022/05/25 09:45:55;;;;;;;1.10;0.30;;;;;;;;;;5013944;28;20075;-78
2022/05/25 09:48:29;;;;;;;3.75;0.40;;;;;;;;;;4992094;28;20035;-78
2022/05/25 09:51:22;;;;;;;1.60;0.40;;;;;;;;;;4933906;28;20046;-79
2022/05/25 09:54:01;;;;;;;1.88;0.20;;;;;;;;;;4950789;28;20039;-78
2022/05/25 09:56:38;;;;;;;0.70;0.25;;;;;;;;;;4949890;28;20585;-78
2022/05/25 09:59:08;;;;;;;1.55;0.22;;;;;;;;;;4933075;29;20117;-78
2022/05/25 10:01:40;;;;;;;5.80;0.22;;;;;;;;;;4950027;28;20511;-78
2022/05/25 10:04:06;;;;;;;1.17;0.10;;;;;;;;;;5013824;28;20094;-78
2022/05/25 10:06:32;;;;;;;1.48;0.55;;;;;;;;;;5013814;28;20083;-78
2022/05/25 10:09:43;;;;;;;1.05;0.40;;;;;;;;;;5030307;28;20037;-78
2022/05/25 10:12:31;;;;;;;1.77;0.28;;;;;;;;;;5028024;28;20077;-78
2022/05/25 10:15:26;;;;;;;2.92;0.30;;;;;;;;;;5030874;28;20056;-78
2022/05/25 10:17:52;;;;;;;15.70;8.50;;;;;;;;;;4945639;28;20039;-78
2022/05/25 10:20:30;;;;;;;13.15;6.65;;;;;;;;;;5013876;28;20043;-77
2022/05/25 10:23:02;;;;;;;6.65;4.05;;;;;;;;;;4917586;28;20097;-79
2022/05/25 10:25:28;;;;;;;5.38;2.15;;;;;;;;;;4931513;28;20066;-78
2022/05/25 10:27:54;;;;;;;6.43;3.17;;;;;;;;;;4929977;28;20039;-78
2022/05/25 10:38:55;;;;;;;3.75;0.70;;;;;;;;;;4920269;29;20067;-77
2022/05/25 10:41:38;;;;;;;4.93;0.82;;;;;;;;;;4934997;29;20485;-77
2022/05/25 10:44:21;;;;;;;1.00;0.30;;;;;;;;;;4938142;28;20047;-77
2022/05/25 10:46:54;;;;;;;2.55;0.30;;;;;;;;;;4935917;28;20045;-77
2022/05/25 10:49:41;;;;;;;4.18;0.40;;;;;;;;;;4955388;28;20338;-78
2022/05/25 10:52:17;;;;;;;5.07;0.65;;;;;;;;;;5023609;28;20066;-78
2022/05/25 10:54:45;;;;;;;4.22;0.60;;;;;;;;;;4955605;28;20416;-77
2022/05/25 10:57:35;;;;;;;6.32;0.55;;;;;;;;;;4955032;28;20562;-77
2022/05/25 11:00:03;;;;;;;2.83;0.30;;;;;;;;;;4972816;28;20055;-78
2022/05/25 11:02:38;;;;;;;2.10;0.38;;;;;;;;;;4960147;28;20065;-78
2022/05/25 11:05:39;;;;;;;2.55;0.60;;;;;;;;;;4936356;29;20046;-78
2022/05/25 11:08:29;;;;;;;1.50;0.30;;;;;;;;;;4936444;28;20088;-78
2022/05/25 11:11:07;;;;;;;2.10;0.75;;;;;;;;;;4935766;29;20074;-78
2022/05/25 11:13:38;;;;;;;2.05;0.28;;;;;;;;;;5016455;28;20380;-78
2022/05/25 11:16:19;;;;;;;1.58;0.20;;;;;;;;;;4935512;29;20131;-78
2022/05/25 11:19:20;;;;;;;3.78;0.47;;;;;;;;;;4935949;28;20089;-78
2022/05/25 11:22:04;;;;;;;2.78;0.50;;;;;;;;;;4935819;28;20046;-78
2022/05/25 11:24:51;;;;;;;0.98;0.38;;;;;;;;;;4935888;29;20043;-78
2022/05/25 11:27:58;;;;;;;0.45;0.20;;;;;;;;;;4951482;29;20369;-78
2022/05/25 11:30:46;;;;;;;2.00;0.30;;;;;;;;;;4958479;28;20499;-78
2022/05/25 11:33:24;;;;;;;0.93;0.17;;;;;;;;;;4950303;28;20043;-78
2022/05/25 11:36:18;;;;;;;3.30;0.30;;;;;;;;;;4951506;28;20055;-78
2022/05/25 11:38:59;;;;;;;1.48;0.20;;;;;;;;;;4952449;28;20039;-78
2022/05/25 11:41:53;;;;;;;1.95;0.40;;;;;;;;;;4951402;29;20058;-78
2022/05/25 11:44:33;;;;;;;2.25;0.28;;;;;;;;;;4955787;28;20440;-77
2022/05/25 11:47:28;;;;;;;1.95;0.30;;;;;;;;;;4967240;28;20102;-78
2022/05/25 11:50:11;;;;;;;1.73;0.32;;;;;;;;;;4969287;28;20070;-78
2022/05/25 11:53:02;;;;;;;1.23;0.65;;;;;;;;;;4954066;28;20030;-78
2022/05/25 11:55:46;;;;;;;2.63;0.20;;;;;;;;;;4954408;28;20034;-77
2022/05/25 11:58:18;;;;;;;1.65;0.20;;;;;;;;;;4954046;28;20046;-78
2022/05/25 12:01:03;;;;;;;1.77;0.28;;;;;;;;;;4970727;28;20050;-78
2022/05/25 12:03:37;;;;;;;1.48;0.20;;;;;;;;;;5002728;28;20043;-78
2022/05/25 12:06:28;;;;;;;1.52;0.30;;;;;;;;;;5018799;28;20043;-78
2022/05/25 12:09:09;;;;;;;1.20;0.28;;;;;;;;;;5001180;28;20085;-77
2022/05/25 12:11:38;;;;;;;1.92;0.30;;;;;;;;;;4951357;28;20039;-78
2022/05/25 12:14:29;;;;;;;1.23;0.17;;;;;;;;;;4935014;29;20050;-78
2022/05/25 12:16:56;;;;;;;0.73;0.10;;;;;;;;;;4934801;28;20036;-78
2022/05/25 12:19:28;;;;;;;0.80;0.10;;;;;;;;;;4919327;29;20036;-78
2022/05/25 12:22:02;;;;;;;1.65;0.30;;;;;;;;;;4934962;29;20401;-78
2022/05/25 12:24:38;;;;;;;1.52;0.35;;;;;;;;;;4935172;29;20038;-78
2022/05/25 12:27:07;;;;;;;0.88;0.15;;;;;;;;;;4933664;28;20090;-78
2022/05/25 12:29:35;;;;;;;0.80;0.10;;;;;;;;;;4934583;28;20032;-78
2022/05/25 12:32:00;;;;;;;1.42;0.20;;;;;;;;;;5001839;28;20081;-78
2022/05/25 12:35:01;;;;;;;0.43;0.10;;;;;;;;;;4934810;29;20035;-77
2022/05/25 12:37:47;;;;;;;0.60;0.10;;;;;;;;;;4873361;28;20096;-77
2022/05/25 12:40:30;;;;;;;0.85;0.20;;;;;;;;;;4945386;28;20513;-77
2022/05/25 12:42:56;;;;;;;3.13;0.20;;;;;;;;;;4951914;28;20546;-78
2022/05/25 12:48:31;;;;;;;0.93;0.32;;;;;;;;;;4951904;28;20039;-77
2022/05/25 12:51:08;;;;;;;0.98;0.30;;;;;;;;;;5015978;28;20051;-78
2022/05/25 12:53:39;;;;;;;0.57;0.10;;;;;;;;;;4951583;29;20529;-78
2022/05/25 12:56:15;;;;;;;2.92;0.85;;;;;;;;;;4950241;28;20722;-77
2022/05/25 12:58:53;;;;;;;0.55;0.10;;;;;;;;;;4950008;29;20043;-78
2022/05/25 13:01:26;;;;;;;0.20;0.10;;;;;;;;;;5017496;28;20071;-77
2022/05/25 13:03:51;;;;;;;1.27;0.20;;;;;;;;;;4951113;28;20497;-78
2022/05/25 13:06:29;;;;;;;2.45;0.80;;;;;;;;;;4951588;28;20039;-78
2022/05/25 13:09:00;;;;;;;0.90;0.10;;;;;;;;;;4996061;28;20047;-78
2022/05/25 13:11:53;;;;;;;0.25;0.10;;;;;;;;;;4950386;28;20035;-77
2022/05/25 13:14:20;;;;;;;1.13;0.17;;;;;;;;;;4904354;28;20058;-77
2022/05/25 13:16:45;;;;;;;0.73;0.30;;;;;;;;;;4933935;29;20036;-77
2022/05/25 13:19:31;;;;;;;1.70;0.20;;;;;;;;;;4950121;29;20035;-78
2022/05/25 13:22:03;;;;;;;0.80;0.10;;;;;;;;;;4949611;28;20501;-77
2022/05/25 13:24:34;;;;;;;0.70;0.20;;;;;;;;;;4934053;29;20035;-77
2022/05/25 13:27:24;;;;;;;0.63;0.10;;;;;;;;;;4948775;28;20283;-77
2022/05/25 13:30:08;;;;;;;2.28;0.20;;;;;;;;;;4960187;28;20071;-77
2022/05/25 13:32:39;;;;;;;2.05;0.28;;;;;;;;;;4950836;28;20070;-77
2022/05/25 13:35:21;;;;;;;0.90;0.10;;;;;;;;;;5000530;28;20052;-77
2022/05/25 13:37:49;;;;;;;0.73;0.10;;;;;;;;;;4966156;28;20050;-77
2022/05/25 13:40:14;;;;;;;0.45;0.15;;;;;;;;;;4934201;29;20043;-77
2022/05/25 13:42:41;;;;;;;0.50;0.17;;;;;;;;;;4933716;29;20062;-77
2022/05/25 13:45:09;;;;;;;0.93;0.13;;;;;;;;;;5017058;28;20043;-77
2022/05/25 13:47:34;;;;;;;1.73;0.10;;;;;;;;;;4928793;28;20449;-77
2022/05/25 13:50:00;;;;;;;0.65;0.10;;;;;;;;;;4997068;28;20048;-77
2022/05/25 13:52:33;;;;;;;0.60;0.10;;;;;;;;;;4997272;28;20107;-77
2022/05/25 13:55:23;;;;;;;0.20;0.10;;;;;;;;;;4997134;28;20114;-77
2022/05/25 13:57:51;;;;;;;1.60;0.25;;;;;;;;;;4918534;28;20130;-77
2022/05/25 14:00:22;;;;;;;0.30;0.00;;;;;;;;;;4933676;29;20042;-77
2022/05/25 14:03:00;;;;;;;6.35;0.80;;;;;;;;;;4944297;29;20442;-77
2022/05/25 14:05:30;;;;;;;0.50;0.20;;;;;;;;;;4917562;29;20460;-77
2022/05/25 14:08:12;;;;;;;8.40;0.73;;;;;;;;;;4932590;29;20093;-77
2022/05/25 14:10:55;;;;;;;31.67;4.75;;;;;;;;;;4933454;29;20042;-77
2022/05/25 14:13:20;;;;;;;;;;;;;;;;;;4935863;29;20035;-77
2022/05/25 14:16:01;;;;;;;13.80;2.83;;;;;;;;;;4950656;28;20483;-78
2022/05/25 14:18:27;;;;;;;48.08;7.55;;;;;;;;;;4932773;28;20039;-79
2022/05/25 14:20:53;;;;;;;29.30;4.80;;;;;;;;;;4932275;29;20027;-79
2022/05/25 14:23:26;;;;;;;53.65;9.55;;;;;;;;;;4920098;29;20046;-78
2022/05/25 14:25:59;;;;;;;46.42;10.32;;;;;;;;;;4921056;28;20396;-79
2022/05/25 14:28:31;;;;;;;33.67;8.05;;;;;;;;;;4932340;28;20562;-79
2022/05/25 14:30:56;;;;;;;28.25;7.60;;;;;;;;;;4918799;29;20567;-78
2022/05/25 14:33:23;;;;;;;18.23;4.38;;;;;;;;;;4932888;29;20043;-78
2022/05/25 14:35:52;;;;;;;21.35;5.15;;;;;;;;;;4992466;28;20047;-78
2022/05/25 14:38:18;;;;;;;9.27;2.78;;;;;;;;;;5012674;28;20039;-78
2022/05/25 14:40:49;;;;;;;15.55;3.88;;;;;;;;;;4917536;28;20394;-78
2022/05/25 14:43:32;;;;;;;19.55;4.07;;;;;;;;;;4983552;28;20038;-78
2022/05/25 14:46:07;;;;;;;19.50;3.75;;;;;;;;;;5000099;28;20066;-78
2022/05/25 14:48:32;;;;;;;11.20;3.67;;;;;;;;;;5011862;28;20062;-77
2022/05/25 14:50:58;;;;;;;13.57;3.55;;;;;;;;;;4952626;28;20114;-77
2022/05/25 14:53:30;;;;;;;12.57;4.63;;;;;;;;;;4952079;28;20401;-77
2022/05/25 14:56:01;;;;;;;;;;;;;;;;;;4952989;28;20053;-78
2022/05/25 14:58:35;;;;;;;11.48;4.47;;;;;;;;;;4968043;28;19963;-77
2022/05/25 15:01:05;;;;;;;12.63;3.40;;;;;;;;;;4952615;28;20043;-77
2022/05/25 15:03:35;;;;;;;10.50;2.85;;;;;;;;;;4981109;28;20079;-77
2022/05/25 15:06:23;;;;;;;7.90;2.55;;;;;;;;;;4995848;28;20139;-78
2022/05/25 15:08:51;;;;;;;6.85;3.08;;;;;;;;;;4994638;28;20111;-77
2022/05/25 15:11:28;;;;;;;8.50;3.25;;;;;;;;;;4929815;28;20062;-78
2022/05/25 15:19:41;;;;;;;6.63;2.75;;;;;;;;;;4989865;28;20387;-78
2022/05/25 15:22:10;;;;;;;8.98;2.95;;;;;;;;;;5000130;28;20046;-78
2022/05/25 15:24:35;;;;;;;6.55;2.22;;;;;;;;;;4999481;28;20047;-78
2022/05/25 15:27:03;;;;;;;7.78;2.42;;;;;;;;;;4993077;28;20054;-77
2022/05/25 15:29:34;;;;;;;6.45;2.40;;;;;;;;;;5005593;28;20071;-78
2022/05/25 15:32:02;;;;;;;7.50;2.10;;;;;;;;;;4932911;28;20052;-78
2022/05/25 15:34:27;;;;;;;5.50;2.35;;;;;;;;;;4932672;29;20036;-77
2022/05/25 15:36:52;;;;;;;3.90;1.70;;;;;;;;;;4930441;28;20050;-78
2022/05/25 15:39:18;;;;;;;5.47;1.90;;;;;;;;;;4935697;29;20045;-77
2022/05/25 15:41:44;;;;;;;6.22;1.60;;;;;;;;;;4935800;28;20035;-78